Time;durP1;ratioP1;P1;durP2;ratioP2;P2;SDS_P1;SDS_P2;PMS_P1;PMS_P2;Temp;Humidity;BMP_temperature;BMP_pressure;BME280_temperature;BME280_humidity;BME280_pressure;Samples;Min_cycle;Max_cycle;Signal;HPM_P1;HPM_P2
2023/05/15 00:02:13;;;;;;;22.85;17.75;;;10.40;99.90;;;;;;5116723;27;20150;-69
2023/05/15 00:04:38;;;;;;;18.20;14.30;;;10.40;99.90;;;;;;5098776;27;20063;-69
2023/05/15 00:07:04;;;;;;;22.73;16.58;;;10.50;99.90;;;;;;5130490;27;20077;-69
2023/05/15 00:09:30;;;;;;;28.05;19.75;;;10.30;99.90;;;;;;5113099;27;20205;-69
2023/05/15 00:11:55;;;;;;;23.23;17.88;;;10.40;99.90;;;;;;5147439;27;20043;-69
2023/05/15 00:14:21;;;;;;;25.77;18.02;;;10.50;99.90;;;;;;5130710;27;20103;-69
2023/05/15 00:16:47;;;;;;;17.83;13.57;;;10.60;99.90;;;;;;5130793;27;20075;-69
2023/05/15 00:19:13;;;;;;;14.10;11.27;;;10.60;99.90;;;;;;5122446;27;20502;-69
2023/05/15 00:21:39;;;;;;;;;;;10.40;99.90;;;;;;5124334;27;20058;-69
2023/05/15 00:24:04;;;;;;;9.73;8.25;;;10.70;99.90;;;;;;5112579;27;19920;-69
2023/05/15 00:26:30;;;;;;;10.75;8.63;;;10.70;99.90;;;;;;5126792;27;20414;-69
2023/05/15 00:28:56;;;;;;;17.65;13.02;;;10.50;99.90;;;;;;5130106;27;20039;-69
2023/05/15 00:31:22;;;;;;;15.55;12.15;;;10.60;99.90;;;;;;5112993;27;20137;-69
2023/05/15 00:33:47;;;;;;;18.10;14.00;;;10.60;99.90;;;;;;5129951;27;20038;-69
2023/05/15 00:36:13;;;;;;;25.52;19.00;;;10.30;99.90;;;;;;5130053;27;20047;-69
2023/05/15 00:38:39;;;;;;;26.02;19.08;;;10.50;99.90;;;;;;5109571;28;20466;-69
2023/05/15 00:41:06;;;;;;;23.48;18.20;;;10.30;99.90;;;;;;5109533;28;20031;-69
2023/05/15 00:43:33;;;;;;;20.58;15.98;;;10.60;99.90;;;;;;5110173;28;20051;-69
2023/05/15 00:46:01;;;;;;;24.00;18.30;;;10.50;99.90;;;;;;5126513;28;20075;-69
2023/05/15 00:48:28;;;;;;;25.40;19.23;;;10.30;99.90;;;;;;5109734;28;20127;-69
2023/05/15 00:50:56;;;;;;;26.45;19.40;;;10.50;99.90;;;;;;5126386;28;20047;-69
2023/05/15 00:53:22;;;;;;;20.35;16.08;;;10.50;99.90;;;;;;5126864;28;20502;-69
2023/05/15 00:55:48;;;;;;;;;;;10.50;99.90;;;;;;5109591;28;20051;-69
2023/05/15 00:58:15;;;;;;;22.65;17.10;;;10.50;99.90;;;;;;5126755;28;20528;-69
2023/05/15 01:00:45;;;;;;;23.73;17.98;;;10.50;99.90;;;;;;5111567;28;20046;-70
2023/05/15 01:03:11;;;;;;;27.13;20.30;;;10.20;99.90;;;;;;5126298;28;20048;-69
2023/05/15 01:05:36;;;;;;;24.95;19.50;;;10.10;99.90;;;;;;5110727;28;20043;-70
2023/05/15 01:08:35;;;;;;;19.02;14.38;;;10.30;99.90;;;;;;5116024;28;20376;-70
2023/05/15 01:11:03;;;;;;;18.20;14.85;;;10.30;99.90;;;;;;5111673;28;20096;-69
2023/05/15 01:13:28;;;;;;;20.20;15.07;;;10.20;99.90;;;;;;5122054;27;20035;-69
2023/05/15 01:15:54;;;;;;;14.48;11.50;;;10.30;99.90;;;;;;5129776;27;20540;-69
2023/05/15 01:18:20;;;;;;;24.58;18.90;;;10.50;99.90;;;;;;5096553;28;20037;-69
2023/05/15 01:21:03;;;;;;;20.02;15.63;;;10.30;99.90;;;;;;5113358;28;20509;-69
2023/05/15 01:23:56;;;;;;;16.63;13.82;;;10.50;99.90;;;;;;5112767;28;20056;-69
2023/05/15 01:26:46;;;;;;;18.00;13.60;;;10.50;99.90;;;;;;5144962;27;20058;-70
2023/05/15 01:29:36;;;;;;;17.83;13.95;;;10.10;99.90;;;;;;5133595;27;20040;-69
2023/05/15 01:32:08;;;;;;;20.33;15.65;;;10.20;99.90;;;;;;5133667;27;20039;-69
2023/05/15 01:35:09;;;;;;;22.40;17.77;;;10.10;99.90;;;;;;5115263;27;20051;-69
2023/05/15 01:37:41;;;;;;;27.50;20.98;;;10.00;99.90;;;;;;5061412;28;20098;-69
2023/05/15 01:40:09;;;;;;;28.90;22.67;;;10.00;99.90;;;;;;5113225;28;20079;-69
2023/05/15 01:42:37;;;;;;;24.15;18.42;;;10.20;99.90;;;;;;5112790;28;20043;-69
2023/05/15 01:45:05;;;;;;;22.38;17.73;;;9.80;99.90;;;;;;5112777;28;20042;-69
2023/05/15 01:47:38;;;;;;;22.83;17.13;;;10.00;99.90;;;;;;5114490;27;20502;-69
2023/05/15 01:50:05;;;;;;;20.90;16.27;;;10.10;99.90;;;;;;5127890;27;20097;-69
2023/05/15 01:52:38;;;;;;;20.90;16.58;;;9.90;99.90;;;;;;5112206;28;20057;-69
2023/05/15 01:55:07;;;;;;;20.23;15.07;;;9.70;99.90;;;;;;5144587;27;20513;-69
2023/05/15 01:57:33;;;;;;;22.48;17.63;;;9.90;99.90;;;;;;5133445;27;20122;-68
2023/05/15 02:00:00;;;;;;;18.73;14.48;;;9.80;99.90;;;;;;5133229;27;20054;-69
2023/05/15 02:02:27;;;;;;;28.58;19.02;;;9.80;99.90;;;;;;5133111;27;20483;-69
2023/05/15 02:04:54;;;;;;;21.67;16.08;;;9.80;99.90;;;;;;5133123;27;20126;-68
2023/05/15 02:07:20;;;;;;;19.60;15.65;;;9.60;99.90;;;;;;5125445;27;20435;-69
2023/05/15 02:09:48;;;;;;;19.50;15.13;;;9.90;99.90;;;;;;5122876;27;20077;-69
2023/05/15 02:12:14;;;;;;;24.85;18.58;;;9.90;99.90;;;;;;5114747;27;20375;-69
2023/05/15 02:14:41;;;;;;;24.90;17.85;;;9.90;99.90;;;;;;5119547;27;20136;-69
2023/05/15 02:17:07;;;;;;;21.10;16.48;;;9.80;99.90;;;;;;5130793;27;20531;-69
2023/05/15 02:19:33;;;;;;;21.85;15.88;;;9.80;99.90;;;;;;5133248;27;20490;-69
2023/05/15 02:21:58;;;;;;;20.15;14.63;;;9.80;99.90;;;;;;5131708;27;20615;-69
2023/05/15 02:24:24;;;;;;;18.60;15.00;;;9.70;99.90;;;;;;5124097;27;20059;-69
2023/05/15 02:27:16;;;;;;;20.48;14.05;;;9.50;99.90;;;;;;5112151;28;20036;-70
2023/05/15 02:29:57;;;;;;;25.77;19.38;;;9.80;99.90;;;;;;5111828;28;20043;-70
2023/05/15 02:32:54;;;;;;;27.63;20.60;;;9.50;99.90;;;;;;5112317;28;20090;-68
2023/05/15 02:35:41;;;;;;;22.50;16.25;;;9.70;99.90;;;;;;5114333;27;20042;-68
2023/05/15 02:38:12;;;;;;;18.65;14.77;;;9.80;99.90;;;;;;5112322;28;20051;-68
2023/05/15 02:40:39;;;;;;;17.40;13.77;;;9.40;99.90;;;;;;5112771;27;20047;-68
2023/05/15 02:43:06;;;;;;;20.98;16.25;;;9.70;99.90;;;;;;5129023;27;20091;-69
2023/05/15 02:45:33;;;;;;;19.92;15.55;;;9.60;99.90;;;;;;5111863;28;20042;-68
2023/05/15 02:47:59;;;;;;;14.93;11.82;;;9.40;99.90;;;;;;5129155;27;20471;-68
2023/05/15 02:50:25;;;;;;;;;;;9.50;99.90;;;;;;5129501;27;20042;-69
2023/05/15 02:52:59;;;;;;;14.55;10.27;;;9.30;99.90;;;;;;5131513;27;20437;-69
2023/05/15 02:55:25;;;;;;;13.30;10.30;;;9.30;99.90;;;;;;5132324;27;20043;-69
2023/05/15 02:57:51;;;;;;;15.82;12.40;;;9.50;99.90;;;;;;5128440;27;20386;-69
2023/05/15 03:00:17;;;;;;;19.45;13.55;;;9.30;99.90;;;;;;5111448;28;20126;-69
2023/05/15 03:02:42;;;;;;;19.83;14.23;;;9.20;99.90;;;;;;5125060;27;20039;-69
2023/05/15 03:05:09;;;;;;;27.48;21.10;;;9.50;99.90;;;;;;5131571;27;20051;-69
2023/05/15 03:07:34;;;;;;;27.38;20.65;;;9.20;99.90;;;;;;5131933;27;20035;-68
2023/05/15 03:10:00;;;;;;;21.70;16.20;;;9.20;99.90;;;;;;5131947;27;20474;-68
2023/05/15 03:12:26;;;;;;;23.42;16.95;;;9.10;99.90;;;;;;5131672;27;20050;-68
2023/05/15 03:14:51;;;;;;;18.70;14.23;;;9.40;99.90;;;;;;5110904;28;20040;-68
2023/05/15 03:17:17;;;;;;;19.77;14.50;;;9.30;99.90;;;;;;5122884;27;20047;-68
2023/05/15 03:19:42;;;;;;;17.98;13.15;;;9.50;99.90;;;;;;5119992;27;20054;-68
2023/05/15 03:22:08;;;;;;;16.40;12.07;;;9.60;99.90;;;;;;5131011;27;20068;-68
2023/05/15 03:24:34;;;;;;;18.65;14.25;;;9.50;99.90;;;;;;5131494;27;20142;-71
2023/05/15 03:27:00;;;;;;;17.65;13.48;;;9.50;99.90;;;;;;5131390;27;20181;-72
2023/05/15 03:29:25;;;;;;;22.35;16.23;;;9.20;99.90;;;;;;5097449;27;20043;-72
2023/05/15 03:31:51;;;;;;;21.30;15.68;;;9.40;99.90;;;;;;5118086;27;20052;-72
2023/05/15 03:34:16;;;;;;;31.48;22.30;;;9.40;99.90;;;;;;5131502;27;20056;-72
2023/05/15 03:36:42;;;;;;;28.17;20.25;;;9.40;99.90;;;;;;5122879;27;20455;-73
2023/05/15 03:39:08;;;;;;;28.13;19.75;;;9.00;99.90;;;;;;5110697;28;20471;-70
2023/05/15 03:41:33;;;;;;;27.98;20.30;;;9.10;99.90;;;;;;5093821;28;20058;-71
2023/05/15 03:43:59;;;;;;;26.92;19.00;;;9.10;99.90;;;;;;5110838;28;20042;-71
2023/05/15 03:46:25;;;;;;;30.83;20.85;;;9.30;99.90;;;;;;5113949;27;20799;-72
2023/05/15 03:48:50;;;;;;;25.55;19.08;;;9.20;99.90;;;;;;5125430;27;20043;-71
2023/05/15 03:51:16;;;;;;;20.35;15.60;;;9.20;99.90;;;;;;5110710;28;20039;-71
2023/05/15 03:53:42;;;;;;;21.08;15.50;;;9.10;99.90;;;;;;5111861;28;20044;-72
2023/05/15 03:56:07;;;;;;;18.20;14.00;;;9.20;99.90;;;;;;5093462;28;20073;-71
2023/05/15 03:58:34;;;;;;;16.20;12.82;;;9.20;99.90;;;;;;5110289;28;20042;-71
2023/05/15 04:00:59;;;;;;;15.55;12.43;;;9.00;99.90;;;;;;5114331;27;20049;-71
2023/05/15 04:03:25;;;;;;;13.00;11.05;;;9.20;99.90;;;;;;5128900;27;20035;-72
2023/05/15 04:05:51;;;;;;;16.50;14.15;;;9.50;99.90;;;;;;5126767;27;20145;-72
2023/05/15 04:08:17;;;;;;;16.05;12.68;;;9.20;99.90;;;;;;5124567;27;20493;-71
2023/05/15 04:10:42;;;;;;;14.90;11.90;;;9.20;99.90;;;;;;5130213;27;20043;-71
2023/05/15 04:13:08;;;;;;;13.95;12.02;;;9.40;99.90;;;;;;5130626;27;20062;-71
2023/05/15 04:15:34;;;;;;;11.82;10.32;;;9.70;99.90;;;;;;5113318;27;20490;-71
2023/05/15 04:18:00;;;;;;;10.55;9.18;;;9.70;99.90;;;;;;5129953;27;20039;-71
2023/05/15 04:20:25;;;;;;;13.77;10.93;;;9.80;99.90;;;;;;5128945;27;20035;-71
2023/05/15 04:22:52;;;;;;;15.52;13.90;;;9.60;99.90;;;;;;5117916;27;20058;-71
2023/05/15 04:25:19;;;;;;;;;;;9.50;99.90;;;;;;5118731;27;20047;-72
2023/05/15 04:27:45;;;;;;;11.95;10.27;;;9.90;99.90;;;;;;5110291;27;19965;-72
2023/05/15 04:30:11;;;;;;;;;;;9.80;99.90;;;;;;5117861;27;20046;-73
2023/05/15 04:32:38;;;;;;;10.07;9.07;;;10.00;99.90;;;;;;5125316;27;20404;-72
2023/05/15 04:35:09;;;;;;;8.00;7.20;;;10.00;99.90;;;;;;5117035;27;20055;-73
2023/05/15 04:37:39;;;;;;;7.38;6.57;;;10.00;99.90;;;;;;5112760;28;20126;-73
2023/05/15 04:40:06;;;;;;;7.40;6.68;;;10.00;99.90;;;;;;5127892;27;20074;-73
2023/05/15 04:42:33;;;;;;;8.18;7.38;;;9.90;99.90;;;;;;5108688;28;20043;-73
2023/05/15 04:44:58;;;;;;;8.02;7.22;;;9.90;99.90;;;;;;5108848;28;20509;-73
2023/05/15 04:47:24;;;;;;;7.28;6.57;;;9.90;99.90;;;;;;5109621;28;20051;-73
2023/05/15 04:49:50;;;;;;;7.35;6.65;;;9.80;99.90;;;;;;5100808;28;20042;-72
2023/05/15 04:52:16;;;;;;;6.30;5.75;;;10.00;99.90;;;;;;5128314;28;20043;-72
2023/05/15 04:54:42;;;;;;;9.77;8.80;;;10.00;99.90;;;;;;5110068;28;20042;-72
2023/05/15 04:57:08;;;;;;;8.80;7.90;;;10.10;99.90;;;;;;5112055;28;20154;-72
2023/05/15 04:59:34;;;;;;;11.00;9.90;;;10.10;99.90;;;;;;5109943;28;20076;-72
2023/05/15 05:02:00;;;;;;;8.73;7.93;;;10.00;99.90;;;;;;5125429;28;20100;-73
2023/05/15 05:04:26;;;;;;;8.00;7.20;;;10.20;99.90;;;;;;5113542;28;20067;-72
2023/05/15 05:06:51;;;;;;;7.43;6.57;;;10.30;99.90;;;;;;5110725;28;20070;-73
2023/05/15 05:09:18;;;;;;;8.02;7.22;;;10.20;99.90;;;;;;5118615;28;20042;-73
2023/05/15 05:11:45;;;;;;;9.45;8.38;;;10.20;99.90;;;;;;5110324;28;20118;-74
2023/05/15 05:14:12;;;;;;;8.25;7.45;;;10.30;99.90;;;;;;5114533;28;20048;-73
2023/05/15 05:16:38;;;;;;;9.60;8.60;;;10.30;99.90;;;;;;5145511;27;20533;-74
2023/05/15 05:19:05;;;;;;;9.30;8.30;;;10.40;99.90;;;;;;5129608;28;20134;-73
2023/05/15 05:21:31;;;;;;;12.48;11.18;;;10.30;99.90;;;;;;5129799;28;20045;-74
2023/05/15 05:23:57;;;;;;;12.07;10.77;;;10.40;99.90;;;;;;5129424;28;20482;-73
2023/05/15 05:26:24;;;;;;;12.45;10.15;;;10.40;99.90;;;;;;5129309;28;20494;-73
2023/05/15 05:28:51;;;;;;;10.82;9.75;;;10.60;99.90;;;;;;5129688;28;20100;-74
2023/05/15 05:31:16;;;;;;;11.25;10.15;;;10.70;99.90;;;;;;5127796;28;20047;-73
2023/05/15 05:33:42;;;;;;;11.40;10.20;;;10.70;99.90;;;;;;5129830;28;20042;-73
2023/05/15 05:36:08;;;;;;;11.52;10.32;;;10.70;99.90;;;;;;5127254;28;20046;-73
2023/05/15 05:38:35;;;;;;;11.80;10.60;;;10.90;99.90;;;;;;5097620;28;20070;-73
2023/05/15 05:41:02;;;;;;;12.15;10.95;;;10.80;99.90;;;;;;5091368;28;20040;-73
2023/05/15 05:43:29;;;;;;;11.43;10.23;;;10.90;99.90;;;;;;5108123;28;20075;-73
2023/05/15 05:45:55;;;;;;;14.90;13.40;;;10.80;99.90;;;;;;5114824;28;20032;-73
2023/05/15 05:48:20;;;;;;;12.32;10.82;;;10.90;99.90;;;;;;5078295;28;20088;-74
2023/05/15 05:50:46;;;;;;;11.57;10.48;;;11.00;99.90;;;;;;5117569;28;20398;-73
2023/05/15 05:53:12;;;;;;;11.15;10.05;;;11.00;99.90;;;;;;5110348;28;20035;-72
2023/05/15 05:55:37;;;;;;;10.27;9.27;;;11.10;99.90;;;;;;5106007;28;20188;-73
2023/05/15 05:58:03;;;;;;;11.38;9.57;;;11.10;99.90;;;;;;5123584;27;20047;-74
2023/05/15 06:00:29;;;;;;;9.70;8.80;;;11.10;99.90;;;;;;5131263;27;20044;-73
2023/05/15 06:02:57;;;;;;;10.55;9.45;;;11.10;99.90;;;;;;5125655;27;20183;-73
2023/05/15 06:05:24;;;;;;;13.25;11.23;;;11.20;99.90;;;;;;5120335;27;20057;-73
2023/05/15 06:07:51;;;;;;;10.43;9.43;;;11.20;99.90;;;;;;5112084;28;20052;-73
2023/05/15 06:10:17;;;;;;;8.85;8.02;;;11.30;99.90;;;;;;5112737;28;20043;-74
2023/05/15 06:12:43;;;;;;;9.38;8.48;;;11.30;99.90;;;;;;5112322;28;20043;-73
2023/05/15 06:15:09;;;;;;;11.52;10.40;;;11.50;99.90;;;;;;5110404;28;20402;-74
2023/05/15 06:17:35;;;;;;;11.77;10.40;;;11.50;99.90;;;;;;5111506;28;20079;-73
2023/05/15 06:20:01;;;;;;;10.38;9.10;;;11.50;99.90;;;;;;5112204;28;20451;-73
2023/05/15 06:22:27;;;;;;;11.23;10.13;;;11.50;99.90;;;;;;5111821;28;20049;-73
2023/05/15 06:24:53;;;;;;;11.70;10.50;;;11.40;99.90;;;;;;5111743;28;20051;-73
2023/05/15 06:27:18;;;;;;;13.73;11.65;;;11.30;99.90;;;;;;5112171;28;20058;-73
2023/05/15 06:29:44;;;;;;;9.38;8.48;;;11.30;99.90;;;;;;5112569;28;20394;-73
2023/05/15 06:32:10;;;;;;;11.32;10.13;;;11.30;99.90;;;;;;5111665;28;20403;-73
2023/05/15 06:34:35;;;;;;;9.80;8.80;;;11.30;99.90;;;;;;5111874;28;20043;-73
2023/05/15 06:37:01;;;;;;;9.73;7.53;;;11.50;99.90;;;;;;5129948;27;20508;-73
2023/05/15 06:39:26;;;;;;;7.15;6.45;;;11.60;99.90;;;;;;5115561;27;20094;-74
2023/05/15 06:41:56;;;;;;;10.13;9.13;;;11.80;99.90;;;;;;5115089;27;20355;-73
2023/05/15 06:44:22;;;;;;;9.52;8.60;;;11.80;99.90;;;;;;5132280;27;20528;-73
2023/05/15 06:46:48;;;;;;;7.88;7.18;;;11.80;99.90;;;;;;5132449;27;20039;-74
2023/05/15 06:49:14;;;;;;;7.97;6.70;;;11.90;99.90;;;;;;5132060;27;20391;-73
2023/05/15 06:51:39;;;;;;;7.60;6.82;;;12.00;99.90;;;;;;5132400;27;20047;-73
2023/05/15 06:54:05;;;;;;;8.50;7.60;;;12.10;99.90;;;;;;5131849;27;20077;-73
2023/05/15 06:56:31;;;;;;;9.63;8.63;;;12.20;99.90;;;;;;5132198;27;20082;-73
2023/05/15 06:58:56;;;;;;;8.50;7.70;;;12.20;99.90;;;;;;5114876;27;20038;-73
2023/05/15 07:01:22;;;;;;;9.32;8.32;;;12.20;99.90;;;;;;5131813;27;20050;-74
2023/05/15 07:03:48;;;;;;;8.00;7.20;;;12.00;99.90;;;;;;5133171;27;20035;-74
2023/05/15 07:06:14;;;;;;;7.80;7.10;;;12.00;99.90;;;;;;5111244;27;20058;-73
2023/05/15 07:08:40;;;;;;;7.03;6.30;;;12.00;99.90;;;;;;5110116;28;20047;-73
2023/05/15 07:11:05;;;;;;;7.43;6.72;;;12.00;99.90;;;;;;5110696;28;20433;-73
2023/05/15 07:13:31;;;;;;;6.47;5.95;;;12.00;99.90;;;;;;5111255;28;20130;-74
2023/05/15 07:15:57;;;;;;;6.75;6.15;;;12.00;99.90;;;;;;5111027;28;20407;-74
2023/05/15 07:18:22;;;;;;;6.30;5.70;;;12.00;99.90;;;;;;5093994;28;20126;-73
2023/05/15 07:20:48;;;;;;;7.03;6.25;;;12.20;99.90;;;;;;5110928;28;20111;-73
2023/05/15 07:23:14;;;;;;;6.25;5.45;;;12.30;99.90;;;;;;5112042;28;20055;-73
2023/05/15 07:25:40;;;;;;;8.02;6.80;;;12.40;64.60;;;;;;5093866;28;20530;-73
2023/05/15 07:28:06;;;;;;;7.55;6.75;;;12.70;99.90;;;;;;5110935;28;20123;-74
2023/05/15 07:30:31;;;;;;;7.75;6.95;;;12.60;1.00;;;;;;5110687;28;20047;-73
2023/05/15 07:32:57;;;;;;;6.53;5.93;;;12.60;99.90;;;;;;5110632;28;20138;-74
2023/05/15 07:35:23;;;;;;;6.18;5.57;;;12.70;99.90;;;;;;5115317;27;20034;-73
2023/05/15 07:37:49;;;;;;;5.97;5.38;;;12.80;99.90;;;;;;5131271;27;20511;-73
2023/05/15 07:40:15;;;;;;;7.40;6.68;;;12.90;70.70;;;;;;5131320;27;20118;-73
2023/05/15 07:42:43;;;;;;;8.63;7.72;;;12.90;1.00;;;;;;5130935;27;20043;-73
2023/05/15 07:45:09;;;;;;;7.28;6.57;;;12.80;32.90;;;;;;5114004;27;20039;-72
2023/05/15 07:47:35;;;;;;;7.28;6.57;;;13.00;99.90;;;;;;5131339;27;20038;-73
2023/05/15 07:50:00;;;;;;;6.25;5.63;;;13.10;99.90;;;;;;5131161;27;20431;-72
2023/05/15 07:52:26;;;;;;;5.43;4.93;;;13.20;99.90;;;;;;5131076;27;20375;-73
2023/05/15 07:54:52;;;;;;;7.30;6.60;;;13.30;99.90;;;;;;5130803;27;20126;-72
2023/05/15 07:57:17;;;;;;;7.65;6.95;;;13.30;99.90;;;;;;5130856;27;20039;-72
2023/05/15 07:59:43;;;;;;;8.18;7.38;;;13.30;99.90;;;;;;5130738;27;20095;-73
2023/05/15 08:02:09;;;;;;;6.28;5.75;;;13.10;1.00;;;;;;5130785;27;20047;-72
2023/05/15 08:04:35;;;;;;;5.75;5.22;;;13.30;99.90;;;;;;5113725;27;20046;-73
2023/05/15 08:07:01;;;;;;;5.38;4.78;;;13.60;99.90;;;;;;5130775;27;20039;-72
2023/05/15 08:09:26;;;;;;;5.25;4.70;;;13.90;29.50;;;;;;5130702;27;20457;-73
2023/05/15 08:11:55;;;;;;;7.10;5.90;;;14.10;99.90;;;;;;5130691;27;20046;-73
2023/05/15 08:14:20;;;;;;;6.65;5.85;;;14.10;99.90;;;;;;5130575;27;20054;-73
2023/05/15 08:16:48;;;;;;;8.20;7.38;;;14.00;24.60;;;;;;5130567;27;20043;-73
2023/05/15 08:19:14;;;;;;;8.70;6.32;;;13.90;68.20;;;;;;5131455;27;20035;-73
2023/05/15 08:21:40;;;;;;;7.63;6.85;;;13.80;93.10;;;;;;5112915;27;20178;-73
2023/05/15 08:24:05;;;;;;;5.85;5.25;;;13.80;99.90;;;;;;5130355;27;20079;-73
2023/05/15 08:26:32;;;;;;;7.40;6.70;;;14.10;99.90;;;;;;5130119;27;20053;-72
2023/05/15 08:28:57;;;;;;;;;;;14.00;99.90;;;;;;5130767;27;20539;-72
2023/05/15 08:31:23;;;;;;;6.60;5.60;;;14.20;1.00;;;;;;5130107;27;19923;-72
2023/05/15 08:33:49;;;;;;;6.82;6.10;;;14.20;99.90;;;;;;5130464;27;20130;-73
2023/05/15 08:36:17;;;;;;;6.13;5.53;;;14.20;10.50;;;;;;5112852;27;20047;-73
2023/05/15 08:38:42;;;;;;;5.65;5.15;;;14.20;1.00;;;;;;5113648;27;20054;-73
2023/05/15 08:41:23;;;;;;;6.20;4.78;;;14.40;99.90;;;;;;5130156;27;20130;-73
2023/05/15 08:43:50;;;;;;;6.82;5.93;;;14.60;99.90;;;;;;5130237;27;20047;-73
2023/05/15 08:46:16;;;;;;;7.72;6.90;;;14.70;99.90;;;;;;5130613;28;20083;-72
2023/05/15 08:48:42;;;;;;;7.50;6.38;;;14.50;99.90;;;;;;5129973;28;20532;-73
2023/05/15 08:51:09;;;;;;;5.85;5.25;;;14.30;99.90;;;;;;5113014;28;20067;-72
2023/05/15 08:53:36;;;;;;;4.38;3.90;;;14.40;99.90;;;;;;5130029;28;20050;-72
2023/05/15 08:56:02;;;;;;;4.97;4.47;;;14.60;68.50;;;;;;5129994;28;20057;-72
2023/05/15 08:58:28;;;;;;;5.50;5.00;;;14.70;99.90;;;;;;5129949;28;20053;-72
2023/05/15 09:00:55;;;;;;;5.20;4.28;;;14.70;99.90;;;;;;5112974;28;20100;-72
2023/05/15 09:03:22;;;;;;;5.35;4.80;;;15.00;99.90;;;;;;5129506;28;20079;-73
2023/05/15 09:05:51;;;;;;;4.80;4.32;;;15.20;99.90;;;;;;5130061;28;20413;-73
2023/05/15 09:08:18;;;;;;;4.97;4.00;;;15.50;1.00;;;;;;5129942;28;20043;-72
2023/05/15 09:10:44;;;;;;;4.85;4.30;;;15.70;1.00;;;;;;5130053;28;20066;-73
2023/05/15 09:13:11;;;;;;;4.78;4.20;;;15.60;99.90;;;;;;5129948;28;20133;-73
2023/05/15 09:15:37;;;;;;;5.28;4.28;;;15.80;99.90;;;;;;5130087;28;20158;-73
2023/05/15 09:18:03;;;;;;;5.93;4.82;;;15.80;99.90;;;;;;5130215;28;20462;-74
2023/05/15 09:20:33;;;;;;;;;;;16.10;5.80;;;;;;5096396;28;20351;-73
2023/05/15 09:23:01;;;;;;;6.75;5.60;;;15.80;99.90;;;;;;5129667;28;20363;-73
2023/05/15 09:25:41;;;;;;;5.90;5.30;;;15.70;1.00;;;;;;5130041;28;20035;-73
2023/05/15 09:28:10;;;;;;;5.22;3.78;;;15.80;99.90;;;;;;5129587;28;20047;-73
2023/05/15 09:30:41;;;;;;;6.28;5.43;;;16.40;30.00;;;;;;5129777;27;20039;-73
2023/05/15 09:33:08;;;;;;;5.72;4.47;;;16.30;1.00;;;;;;5133506;27;20039;-73
2023/05/15 09:35:38;;;;;;;5.50;4.57;;;16.50;96.80;;;;;;5133379;27;20394;-72
2023/05/15 09:38:09;;;;;;;4.78;4.13;;;16.40;99.90;;;;;;5133955;27;20054;-73
2023/05/15 09:40:35;;;;;;;5.78;4.60;;;16.60;63.40;;;;;;5133859;27;20490;-73
2023/05/15 09:43:00;;;;;;;6.80;5.43;;;16.50;99.90;;;;;;5116451;27;20146;-72
2023/05/15 09:45:28;;;;;;;6.85;5.45;;;16.30;1.00;;;;;;5133629;27;20497;-72
2023/05/15 09:47:56;;;;;;;5.40;4.63;;;16.30;99.90;;;;;;5133323;27;20059;-73
2023/05/15 09:50:24;;;;;;;6.45;5.18;;;16.50;90.60;;;;;;5133354;27;20039;-73
2023/05/15 09:52:50;;;;;;;4.70;4.20;;;16.40;1.00;;;;;;5133392;27;20159;-72
2023/05/15 09:55:18;;;;;;;4.10;3.70;;;16.60;99.90;;;;;;5133140;27;20490;-73
2023/05/15 09:58:07;;;;;;;5.60;4.10;;;16.60;96.40;;;;;;5133742;27;20050;-73
2023/05/15 10:00:34;;;;;;;4.63;3.67;;;16.80;99.90;;;;;;5133350;27;20570;-72
2023/05/15 10:03:04;;;;;;;4.20;3.80;;;16.80;99.90;;;;;;5130555;27;20043;-73
2023/05/15 10:05:30;;;;;;;4.55;3.83;;;16.60;99.90;;;;;;5097305;27;20046;-74
2023/05/15 10:07:58;;;;;;;5.55;4.03;;;16.70;99.90;;;;;;5132103;27;20321;-73
2023/05/15 10:10:25;;;;;;;5.22;4.35;;;16.70;99.90;;;;;;5132304;27;20152;-73
2023/05/15 10:12:52;;;;;;;5.60;4.13;;;16.50;1.00;;;;;;5133012;27;20555;-73
2023/05/15 10:15:18;;;;;;;4.78;4.10;;;16.40;99.90;;;;;;5132759;27;20039;-73
2023/05/15 10:17:47;;;;;;;5.93;3.92;;;16.50;99.90;;;;;;5132613;27;20042;-73
2023/05/15 10:20:15;;;;;;;4.45;3.40;;;16.50;99.90;;;;;;5132658;27;20046;-73
2023/05/15 10:22:46;;;;;;;4.22;3.75;;;16.90;99.90;;;;;;5132259;27;20078;-74
2023/05/15 10:25:42;;;;;;;4.03;3.22;;;17.20;99.90;;;;;;5132568;27;20130;-72
2023/05/15 10:28:10;;;;;;;5.70;3.90;;;17.60;99.90;;;;;;5132645;27;20043;-73
2023/05/15 10:30:36;;;;;;;4.10;3.50;;;17.30;99.90;;;;;;5132560;27;20095;-73
2023/05/15 10:33:06;;;;;;;6.05;4.70;;;17.30;99.90;;;;;;5115290;27;20086;-73
2023/05/15 10:35:33;;;;;;;4.88;3.85;;;17.10;99.90;;;;;;5132243;27;20043;-72
2023/05/15 10:38:02;;;;;;;4.15;3.08;;;17.40;99.90;;;;;;5132519;27;20494;-72
2023/05/15 10:40:29;;;;;;;4.72;4.25;;;17.50;99.90;;;;;;5114993;27;20047;-72
2023/05/15 10:42:59;;;;;;;5.22;3.97;;;17.50;99.90;;;;;;5131455;27;20035;-73
2023/05/15 10:45:25;;;;;;;3.78;3.00;;;17.80;99.90;;;;;;5132494;27;20505;-72
2023/05/15 10:47:51;;;;;;;3.72;3.03;;;18.30;99.90;;;;;;5114872;27;20103;-73
2023/05/15 10:50:17;;;;;;;;;;;18.40;99.90;;;;;;5115728;27;20035;-73
2023/05/15 10:52:42;;;;;;;3.35;2.97;;;18.10;92.40;;;;;;5131922;27;20267;-74
2023/05/15 10:55:12;;;;;;;;;;;18.30;99.90;;;;;;5115380;27;20042;-73
2023/05/15 10:57:38;;;;;;;5.45;3.95;;;18.10;26.10;;;;;;5114819;27;19915;-73
2023/05/15 11:00:22;;;;;;;;;;;17.30;1.00;;;;;;5115195;27;20062;-73
2023/05/15 11:02:52;;;;;;;5.55;3.55;;;17.30;61.20;;;;;;5131807;27;19923;-73
2023/05/15 11:05:18;;;;;;;3.92;3.53;;;17.00;56.50;;;;;;5131887;27;20047;-73
2023/05/15 11:08:04;;;;;;;;;;;16.90;99.90;;;;;;5132048;27;20130;-73
2023/05/15 11:10:29;;;;;;;4.90;4.20;;;16.80;99.90;;;;;;5131333;27;19922;-73
2023/05/15 11:13:01;;;;;;;;;;;16.50;1.00;;;;;;5132014;27;20047;-73
2023/05/15 11:15:43;;;;;;;4.43;3.58;;;16.80;99.90;;;;;;5131517;27;19967;-70
2023/05/15 11:18:09;;;;;;;4.03;3.20;;;17.00;1.00;;;;;;5131431;27;20398;-70
2023/05/15 11:21:01;;;;;;;;;;;17.00;1.00;;;;;;5132104;27;20053;-70
2023/05/15 11:23:27;;;;;;;5.68;4.00;;;17.10;99.90;;;;;;5131046;27;19923;-70
2023/05/15 11:25:54;;;;;;;;;;;17.00;1.00;;;;;;5133211;27;20047;-70
2023/05/15 11:28:22;;;;;;;4.45;3.55;;;17.30;17.50;;;;;;5131323;27;19919;-70
2023/05/15 11:30:51;;;;;;;3.38;3.08;;;17.20;99.90;;;;;;5131305;27;20055;-70
2023/05/15 11:33:19;;;;;;;5.05;3.95;;;17.20;99.90;;;;;;5131395;27;20506;-70
2023/05/15 11:35:56;;;;;;;5.45;4.10;;;17.00;99.90;;;;;;5131110;27;20131;-70
2023/05/15 11:38:25;;;;;;;;;;;16.70;99.90;;;;;;5131834;27;20042;-70
2023/05/15 11:41:01;;;;;;;5.05;4.45;;;16.70;99.90;;;;;;5131111;27;19925;-70
2023/05/15 11:43:46;;;;;;;5.70;4.43;;;16.50;99.90;;;;;;5131276;27;20050;-70
2023/05/15 11:46:13;;;;;;;6.95;5.05;;;16.80;99.90;;;;;;5131072;27;20063;-70
2023/05/15 11:48:43;;;;;;;6.60;4.72;;;16.90;99.90;;;;;;5130932;27;20118;-70
2023/05/15 11:51:21;;;;;;;5.38;4.25;;;17.10;99.90;;;;;;5113913;27;20389;-70
2023/05/15 11:53:49;;;;;;;6.00;4.93;;;16.80;99.90;;;;;;5131065;27;20047;-70
2023/05/15 11:56:23;;;;;;;5.70;4.90;;;16.50;99.90;;;;;;5130784;27;20127;-70
2023/05/15 11:58:55;;;;;;;5.85;4.75;;;16.50;1.00;;;;;;5130935;27;20355;-70
2023/05/15 12:01:21;;;;;;;7.03;5.68;;;16.50;23.60;;;;;;5130694;27;20055;-70
2023/05/15 12:03:50;;;;;;;;;;;16.20;99.90;;;;;;5130826;27;20035;-70
2023/05/15 12:06:16;;;;;;;5.57;4.97;;;16.10;99.90;;;;;;5130643;27;20002;-70
2023/05/15 12:08:42;;;;;;;5.28;4.63;;;16.10;99.90;;;;;;5127055;27;20120;-69
2023/05/15 12:11:08;;;;;;;6.15;5.35;;;16.20;1.00;;;;;;5114886;27;20100;-69
2023/05/15 12:13:34;;;;;;;;;;;16.30;30.60;;;;;;5103219;28;20047;-69
2023/05/15 12:16:03;;;;;;;5.07;4.00;;;16.40;99.90;;;;;;5122444;27;19954;-69
2023/05/15 12:18:32;;;;;;;5.28;4.60;;;16.70;1.00;;;;;;5118570;27;20134;-70
2023/05/15 12:20:59;;;;;;;5.75;4.80;;;16.70;18.40;;;;;;5108104;28;20052;-70
2023/05/15 12:23:27;;;;;;;4.85;4.18;;;16.40;99.90;;;;;;5109417;28;20110;-70
2023/05/15 12:25:59;;;;;;;4.60;3.90;;;16.50;1.00;;;;;;5109991;28;20050;-70
2023/05/15 12:28:25;;;;;;;4.68;4.00;;;16.50;99.90;;;;;;5109686;28;20047;-70
2023/05/15 12:30:51;;;;;;;;;;;16.60;1.00;;;;;;5110027;28;20035;-71
2023/05/15 12:33:17;;;;;;;6.35;4.78;;;16.80;72.90;;;;;;5109692;28;20002;-70
2023/05/15 12:35:48;;;;;;;;;;;17.30;99.90;;;;;;5117189;27;20168;-70
2023/05/15 12:38:15;;;;;;;5.50;4.60;;;17.80;99.90;;;;;;5130033;27;20130;-70
2023/05/15 12:40:43;;;;;;;5.80;5.30;;;18.00;1.00;;;;;;5130552;27;20412;-71
2023/05/15 12:43:10;;;;;;;5.32;4.70;;;17.60;1.00;;;;;;5112793;28;20053;-70
2023/05/15 12:45:38;;;;;;;4.47;3.80;;;17.40;77.90;;;;;;5130161;28;20559;-70
2023/05/15 12:48:04;;;;;;;5.55;4.55;;;17.50;99.90;;;;;;5129859;28;20035;-70
2023/05/15 12:50:34;;;;;;;5.55;4.90;;;17.30;99.90;;;;;;5129904;28;20049;-70